sensor_id;sensor_type;location;lat;lon;timestamp;pressure;altitude;pressure_sealevel;temperature;humidity
9474;BME280;8865;47.636;7.692;2023-01-29T00:00:02;99178.91;;;2.57;100.00
9474;BME280;8865;47.636;7.692;2023-01-29T00:02:35;99183.97;;;2.60;100.00
9474;BME280;8865;47.636;7.692;2023-01-29T00:05:02;99182.31;;;2.57;100.00
9474;BME280;8865;47.636;7.692;2023-01-29T00:07:28;99178.97;;;2.55;100.00
9474;BME280;8865;47.636;7.692;2023-01-29T00:09:55;99184.03;;;2.58;100.00
9474;BME280;8865;47.636;7.692;2023-01-29T00:12:21;99179.81;;;2.56;100.00
9474;BME280;8865;47.636;7.692;2023-01-29T00:14:46;99191.16;;;2.52;100.00
9474;BME280;8865;47.636;7.692;2023-01-29T00:17:12;99185.91;;;2.53;100.00
9474;BME280;8865;47.636;7.692;2023-01-29T00:19:38;99181.72;;;2.50;100.00
9474;BME280;8865;47.636;7.692;2023-01-29T00:22:05;99180.88;;;2.50;100.00
9474;BME280;8865;47.636;7.692;2023-01-29T00:24:30;99179.09;;;2.52;100.00
9474;BME280;8865;47.636;7.692;2023-01-29T00:26:56;99180.03;;;2.49;100.00
9474;BME280;8865;47.636;7.692;2023-01-29T00:29:22;99185.22;;;2.49;100.00
9474;BME280;8865;47.636;7.692;2023-01-29T00:31:48;99187.91;;;2.46;100.00
9474;BME280;8865;47.636;7.692;2023-01-29T00:34:14;99181.09;;;2.44;100.00
9474;BME280;8865;47.636;7.692;2023-01-29T00:36:40;99189.72;;;2.44;100.00
9474;BME280;8865;47.636;7.692;2023-01-29T00:39:08;99178.56;;;2.42;100.00
9474;BME280;8865;47.636;7.692;2023-01-29T00:41:37;99191.50;;;2.42;100.00
9474;BME280;8865;47.636;7.692;2023-01-29T00:44:22;99188.09;;;2.42;100.00
9474;BME280;8865;47.636;7.692;2023-01-29T00:47:07;99183.03;;;2.39;100.00
9474;BME280;8865;47.636;7.692;2023-01-29T00:49:54;99183.88;;;2.39;100.00
9474;BME280;8865;47.636;7.692;2023-01-29T00:52:20;99179.50;;;2.41;100.00
9474;BME280;8865;47.636;7.692;2023-01-29T00:54:49;99179.84;;;2.32;100.00
9474;BME280;8865;47.636;7.692;2023-01-29T00:57:15;99178.75;;;2.38;100.00
9474;BME280;8865;47.636;7.692;2023-01-29T00:59:41;99180.44;;;2.39;100.00
9474;BME280;8865;47.636;7.692;2023-01-29T01:02:07;99183.16;;;2.36;100.00
9474;BME280;8865;47.636;7.692;2023-01-29T01:04:52;99187.25;;;2.41;100.00
9474;BME280;8865;47.636;7.692;2023-01-29T01:07:18;99185.50;;;2.42;100.00
9474;BME280;8865;47.636;7.692;2023-01-29T01:09:44;99179.50;;;2.41;100.00
9474;BME280;8865;47.636;7.692;2023-01-29T01:12:29;99176.22;;;2.36;100.00
9474;BME280;8865;47.636;7.692;2023-01-29T01:14:55;99182.59;;;2.27;100.00
9474;BME280;8865;47.636;7.692;2023-01-29T01:17:22;99193.28;;;2.18;100.00
9474;BME280;8865;47.636;7.692;2023-01-29T01:19:48;99194.16;;;2.17;100.00
9474;BME280;8865;47.636;7.692;2023-01-29T01:22:14;99200.28;;;2.14;100.00
9474;BME280;8865;47.636;7.692;2023-01-29T01:24:40;99196.69;;;2.19;100.00
9474;BME280;8865;47.636;7.692;2023-01-29T01:27:06;99193.41;;;2.15;100.00
9474;BME280;8865;47.636;7.692;2023-01-29T01:29:32;99194.50;;;2.08;100.00
9474;BME280;8865;47.636;7.692;2023-01-29T01:31:58;99197.31;;;2.02;100.00
9474;BME280;8865;47.636;7.692;2023-01-29T01:34:24;99204.16;;;2.03;100.00
9474;BME280;8865;47.636;7.692;2023-01-29T01:36:52;99202.09;;;2.12;100.00
9474;BME280;8865;47.636;7.692;2023-01-29T01:39:20;99206.56;;;2.07;100.00
9474;BME280;8865;47.636;7.692;2023-01-29T01:41:47;99198.63;;;2.13;100.00
9474;BME280;8865;47.636;7.692;2023-01-29T01:44:51;99201.16;;;2.15;100.00
9474;BME280;8865;47.636;7.692;2023-01-29T01:47:29;99201.88;;;2.19;100.00
9474;BME280;8865;47.636;7.692;2023-01-29T01:49:59;99205.16;;;2.22;100.00
9474;BME280;8865;47.636;7.692;2023-01-29T01:52:29;99212.97;;;2.21;100.00
9474;BME280;8865;47.636;7.692;2023-01-29T01:54:57;99205.22;;;2.21;100.00
9474;BME280;8865;47.636;7.692;2023-01-29T01:57:24;99202.59;;;2.22;100.00
9474;BME280;8865;47.636;7.692;2023-01-29T01:59:59;99212.09;;;2.22;100.00
9474;BME280;8865;47.636;7.692;2023-01-29T02:02:28;99203.56;;;2.20;100.00
9474;BME280;8865;47.636;7.692;2023-01-29T02:05:13;99208.78;;;2.18;100.00
9474;BME280;8865;47.636;7.692;2023-01-29T02:07:58;99215.69;;;2.18;100.00
9474;BME280;8865;47.636;7.692;2023-01-29T02:10:45;99208.69;;;2.21;100.00
9474;BME280;8865;47.636;7.692;2023-01-29T02:13:11;99200.88;;;2.23;100.00
9474;BME280;8865;47.636;7.692;2023-01-29T02:15:41;99207.75;;;2.22;100.00
9474;BME280;8865;47.636;7.692;2023-01-29T02:18:15;99210.34;;;2.22;100.00
9474;BME280;8865;47.636;7.692;2023-01-29T02:24:04;99206.09;;;2.21;100.00
9474;BME280;8865;47.636;7.692;2023-01-29T02:29:34;99196.81;;;2.16;100.00
9474;BME280;8865;47.636;7.692;2023-01-29T02:35:39;99202.19;;;2.09;100.00
9474;BME280;8865;47.636;7.692;2023-01-29T02:40:58;99201.38;;;2.07;100.00
9474;BME280;8865;47.636;7.692;2023-01-29T02:43:47;99200.50;;;2.08;100.00
9474;BME280;8865;47.636;7.692;2023-01-29T02:48:56;99200.88;;;1.98;100.00
9474;BME280;8865;47.636;7.692;2023-01-29T02:51:29;99201.88;;;1.93;100.00
9474;BME280;8865;47.636;7.692;2023-01-29T02:54:05;99206.88;;;1.98;100.00
9474;BME280;8865;47.636;7.692;2023-01-29T02:59:17;99201.44;;;2.06;100.00
9474;BME280;8865;47.636;7.692;2023-01-29T03:01:52;99204.78;;;2.09;100.00
9474;BME280;8865;47.636;7.692;2023-01-29T03:04:25;99195.00;;;2.18;100.00
9474;BME280;8865;47.636;7.692;2023-01-29T03:06:57;99190.59;;;2.21;100.00
9474;BME280;8865;47.636;7.692;2023-01-29T03:09:43;99192.72;;;2.34;100.00
9474;BME280;8865;47.636;7.692;2023-01-29T03:12:16;99192.47;;;2.40;100.00
9474;BME280;8865;47.636;7.692;2023-01-29T03:14:54;99194.78;;;2.47;100.00
9474;BME280;8865;47.636;7.692;2023-01-29T03:18:09;99200.59;;;2.53;100.00
9474;BME280;8865;47.636;7.692;2023-01-29T03:20:42;99202.13;;;2.58;100.00
9474;BME280;8865;47.636;7.692;2023-01-29T03:23:25;99208.00;;;2.62;100.00
9474;BME280;8865;47.636;7.692;2023-01-29T03:26:12;99203.69;;;2.62;100.00
9474;BME280;8865;47.636;7.692;2023-01-29T03:28:59;99201.56;;;2.50;100.00
9474;BME280;8865;47.636;7.692;2023-01-29T03:31:46;99196.84;;;2.38;100.00
9474;BME280;8865;47.636;7.692;2023-01-29T03:34:39;99199.59;;;2.33;100.00
9474;BME280;8865;47.636;7.692;2023-01-29T03:37:10;99199.84;;;2.27;100.00
9474;BME280;8865;47.636;7.692;2023-01-29T03:39:38;99199.53;;;2.35;100.00
9474;BME280;8865;47.636;7.692;2023-01-29T03:42:27;99202.53;;;2.47;100.00
9474;BME280;8865;47.636;7.692;2023-01-29T03:47:45;99203.06;;;2.56;100.00
9474;BME280;8865;47.636;7.692;2023-01-29T03:53:16;99201.03;;;2.64;100.00
9474;BME280;8865;47.636;7.692;2023-01-29T03:59:01;99198.25;;;2.68;100.00
9474;BME280;8865;47.636;7.692;2023-01-29T04:06:37;99189.84;;;2.85;100.00
9474;BME280;8865;47.636;7.692;2023-01-29T04:09:14;99188.03;;;2.65;100.00
9474;BME280;8865;47.636;7.692;2023-01-29T04:11:46;99188.97;;;2.64;100.00
9474;BME280;8865;47.636;7.692;2023-01-29T04:14:13;99190.25;;;2.75;100.00
9474;BME280;8865;47.636;7.692;2023-01-29T04:16:43;99188.44;;;2.55;100.00
9474;BME280;8865;47.636;7.692;2023-01-29T04:19:11;99185.38;;;2.67;100.00
9474;BME280;8865;47.636;7.692;2023-01-29T04:21:38;99190.44;;;2.70;100.00
9474;BME280;8865;47.636;7.692;2023-01-29T04:24:06;99194.44;;;2.79;100.00
9474;BME280;8865;47.636;7.692;2023-01-29T04:29:22;99198.47;;;2.86;100.00
9474;BME280;8865;47.636;7.692;2023-01-29T04:32:08;99196.72;;;2.86;100.00
9474;BME280;8865;47.636;7.692;2023-01-29T04:37:20;99204.22;;;2.93;100.00
9474;BME280;8865;47.636;7.692;2023-01-29T04:39:55;99198.94;;;2.96;100.00
9474;BME280;8865;47.636;7.692;2023-01-29T04:45:30;99196.59;;;2.90;100.00
9474;BME280;8865;47.636;7.692;2023-01-29T04:53:29;99201.63;;;2.93;100.00
9474;BME280;8865;47.636;7.692;2023-01-29T04:56:09;99201.81;;;2.88;100.00
9474;BME280;8865;47.636;7.692;2023-01-29T04:58:46;99200.50;;;2.78;100.00
9474;BME280;8865;47.636;7.692;2023-01-29T05:01:15;99199.13;;;2.69;100.00
9474;BME280;8865;47.636;7.692;2023-01-29T05:03:46;99202.72;;;2.65;100.00
9474;BME280;8865;47.636;7.692;2023-01-29T05:06:16;99206.50;;;2.56;100.00
9474;BME280;8865;47.636;7.692;2023-01-29T05:08:43;99201.56;;;2.50;100.00
9474;BME280;8865;47.636;7.692;2023-01-29T05:11:09;99207.81;;;2.44;100.00
9474;BME280;8865;47.636;7.692;2023-01-29T05:13:38;99199.50;;;2.36;100.00
9474;BME280;8865;47.636;7.692;2023-01-29T05:18:43;99204.34;;;2.22;100.00
9474;BME280;8865;47.636;7.692;2023-01-29T05:21:10;99200.97;;;2.20;100.00
9474;BME280;8865;47.636;7.692;2023-01-29T05:23:36;99200.28;;;2.14;100.00
9474;BME280;8865;47.636;7.692;2023-01-29T05:26:02;99200.41;;;2.11;100.00
9474;BME280;8865;47.636;7.692;2023-01-29T05:28:28;99202.19;;;2.09;100.00
9474;BME280;8865;47.636;7.692;2023-01-29T05:30:55;99200.72;;;2.02;100.00
9474;BME280;8865;47.636;7.692;2023-01-29T05:33:25;99206.16;;;1.94;100.00
9474;BME280;8865;47.636;7.692;2023-01-29T05:35:53;99211.38;;;1.93;100.00
9474;BME280;8865;47.636;7.692;2023-01-29T05:38:20;99221.09;;;1.86;100.00
9474;BME280;8865;47.636;7.692;2023-01-29T05:40:47;99225.63;;;1.79;100.00
9474;BME280;8865;47.636;7.692;2023-01-29T05:43:18;99227.53;;;1.74;100.00
9474;BME280;8865;47.636;7.692;2023-01-29T05:45:52;99231.22;;;1.67;100.00
9474;BME280;8865;47.636;7.692;2023-01-29T05:48:18;99229.75;;;1.60;100.00
9474;BME280;8865;47.636;7.692;2023-01-29T05:50:44;99234.47;;;1.47;100.00
9474;BME280;8865;47.636;7.692;2023-01-29T05:53:10;99235.47;;;1.43;100.00
9474;BME280;8865;47.636;7.692;2023-01-29T05:55:36;99239.31;;;1.31;100.00
9474;BME280;8865;47.636;7.692;2023-01-29T05:58:02;99241.34;;;1.21;100.00
9474;BME280;8865;47.636;7.692;2023-01-29T06:00:28;99241.97;;;1.28;100.00
9474;BME280;8865;47.636;7.692;2023-01-29T06:02:54;99242.03;;;1.27;100.00
9474;BME280;8865;47.636;7.692;2023-01-29T06:05:21;99239.31;;;1.31;100.00
9474;BME280;8865;47.636;7.692;2023-01-29T06:07:47;99251.97;;;1.39;100.00
9474;BME280;8865;47.636;7.692;2023-01-29T06:10:15;99254.38;;;1.43;100.00
9474;BME280;8865;47.636;7.692;2023-01-29T06:12:42;99261.09;;;1.49;100.00
9474;BME280;8865;47.636;7.692;2023-01-29T06:15:09;99259.28;;;1.51;100.00
9474;BME280;8865;47.636;7.692;2023-01-29T06:17:35;99270.47;;;1.52;100.00
9474;BME280;8865;47.636;7.692;2023-01-29T06:20:02;99270.66;;;1.46;100.00
9474;BME280;8865;47.636;7.692;2023-01-29T06:22:29;99273.25;;;1.46;100.00
9474;BME280;8865;47.636;7.692;2023-01-29T06:24:55;99269.78;;;1.47;100.00
9474;BME280;8865;47.636;7.692;2023-01-29T06:27:21;99274.19;;;1.43;100.00
9474;BME280;8865;47.636;7.692;2023-01-29T06:29:47;99270.75;;;1.42;100.00
9474;BME280;8865;47.636;7.692;2023-01-29T06:32:13;99266.91;;;1.29;100.00
9474;BME280;8865;47.636;7.692;2023-01-29T06:34:39;99257.56;;;1.25;100.00
9474;BME280;8865;47.636;7.692;2023-01-29T06:37:05;99250.06;;;1.17;100.00
9474;BME280;8865;47.636;7.692;2023-01-29T06:39:33;99248.16;;;1.22;100.00
9474;BME280;8865;47.636;7.692;2023-01-29T06:41:59;99239.50;;;1.25;100.00
9474;BME280;8865;47.636;7.692;2023-01-29T06:44:25;99239.50;;;1.25;100.00
9474;BME280;8865;47.636;7.692;2023-01-29T06:46:51;99236.97;;;1.23;100.00
9474;BME280;8865;47.636;7.692;2023-01-29T06:49:17;99236.19;;;1.21;100.00
9474;BME280;8865;47.636;7.692;2023-01-29T06:51:43;99239.84;;;1.14;100.00
9474;BME280;8865;47.636;7.692;2023-01-29T06:54:09;99240.00;;;1.10;100.00
9474;BME280;8865;47.636;7.692;2023-01-29T06:56:35;99246.78;;;1.12;100.00
9474;BME280;8865;47.636;7.692;2023-01-29T06:59:01;99252.09;;;1.08;100.00
9474;BME280;8865;47.636;7.692;2023-01-29T07:01:28;99258.03;;;1.10;100.00
9474;BME280;8865;47.636;7.692;2023-01-29T07:03:54;99256.25;;;1.12;100.00
9474;BME280;8865;47.636;7.692;2023-01-29T07:06:20;99258.00;;;1.11;100.00
9474;BME280;8865;47.636;7.692;2023-01-29T07:08:46;99263.13;;;1.13;100.00
9474;BME280;8865;47.636;7.692;2023-01-29T07:11:12;99262.28;;;1.12;100.00
9474;BME280;8865;47.636;7.692;2023-01-29T07:13:38;99264.81;;;1.14;100.00
9474;BME280;8865;47.636;7.692;2023-01-29T07:16:05;99262.19;;;1.15;100.00
9474;BME280;8865;47.636;7.692;2023-01-29T07:18:31;99273.25;;;1.19;100.00
9474;BME280;8865;47.636;7.692;2023-01-29T07:20:57;99283.50;;;1.20;100.00
9474;BME280;8865;47.636;7.692;2023-01-29T07:23:24;99286.97;;;1.19;100.00
9474;BME280;8865;47.636;7.692;2023-01-29T07:25:50;99287.84;;;1.20;100.00
9474;BME280;8865;47.636;7.692;2023-01-29T07:28:17;99293.78;;;1.22;100.00
9474;BME280;8865;47.636;7.692;2023-01-29T07:30:43;99287.78;;;1.21;100.00
9474;BME280;8865;47.636;7.692;2023-01-29T07:33:10;99284.44;;;1.18;100.00
9474;BME280;8865;47.636;7.692;2023-01-29T07:35:41;99291.44;;;1.14;100.00
9474;BME280;8865;47.636;7.692;2023-01-29T07:38:08;99296.06;;;1.31;100.00
9474;BME280;8865;47.636;7.692;2023-01-29T07:40:35;99297.78;;;1.32;100.00
9474;BME280;8865;47.636;7.692;2023-01-29T07:43:03;99298.03;;;1.24;100.00
9474;BME280;8865;47.636;7.692;2023-01-29T07:45:30;99299.63;;;1.27;100.00
9474;BME280;8865;47.636;7.692;2023-01-29T07:47:58;99290.00;;;1.34;100.00
9474;BME280;8865;47.636;7.692;2023-01-29T07:50:25;99302.75;;;1.10;100.00
9474;BME280;8865;47.636;7.692;2023-01-29T07:52:54;99311.50;;;1.04;100.00
9474;BME280;8865;47.636;7.692;2023-01-29T07:55:21;99315.50;;;1.15;100.00
9474;BME280;8865;47.636;7.692;2023-01-29T07:57:47;99304.78;;;1.00;100.00
9474;BME280;8865;47.636;7.692;2023-01-29T08:00:19;99310.47;;;0.82;100.00
9474;BME280;8865;47.636;7.692;2023-01-29T08:02:45;99312.59;;;0.97;100.00
9474;BME280;8865;47.636;7.692;2023-01-29T08:05:12;99308.47;;;0.92;100.00
9474;BME280;8865;47.636;7.692;2023-01-29T08:07:37;99304.72;;;1.02;100.00
9474;BME280;8865;47.636;7.692;2023-01-29T08:10:04;99306.28;;;0.78;100.00
9474;BME280;8865;47.636;7.692;2023-01-29T08:12:30;99311.88;;;0.92;100.00
9474;BME280;8865;47.636;7.692;2023-01-29T08:14:56;99301.03;;;1.11;100.00
9474;BME280;8865;47.636;7.692;2023-01-29T08:17:22;99305.81;;;1.23;100.00
9474;BME280;8865;47.636;7.692;2023-01-29T08:19:48;99303.31;;;1.20;100.00
9474;BME280;8865;47.636;7.692;2023-01-29T08:22:14;99311.06;;;1.20;100.00
9474;BME280;8865;47.636;7.692;2023-01-29T08:24:41;99310.13;;;0.94;100.00
9474;BME280;8865;47.636;7.692;2023-01-29T08:27:07;99313.06;;;0.82;100.00
9474;BME280;8865;47.636;7.692;2023-01-29T08:29:34;99312.88;;;0.88;100.00
9474;BME280;8865;47.636;7.692;2023-01-29T08:32:00;99318.69;;;0.95;100.00
9474;BME280;8865;47.636;7.692;2023-01-29T08:34:25;99321.09;;;1.01;100.00
9474;BME280;8865;47.636;7.692;2023-01-29T08:36:52;99318.44;;;1.02;100.00
9474;BME280;8865;47.636;7.692;2023-01-29T08:39:18;99330.25;;;1.11;100.00
9474;BME280;8865;47.636;7.692;2023-01-29T08:41:44;99333.06;;;1.03;100.00
9474;BME280;8865;47.636;7.692;2023-01-29T08:44:10;99338.22;;;1.03;100.00
9474;BME280;8865;47.636;7.692;2023-01-29T08:46:36;99336.41;;;1.05;100.00
9474;BME280;8865;47.636;7.692;2023-01-29T08:49:02;99341.03;;;1.24;100.00
9474;BME280;8865;47.636;7.692;2023-01-29T08:51:28;99341.50;;;1.37;100.00
9474;BME280;8865;47.636;7.692;2023-01-29T08:53:54;99353.69;;;1.32;100.00
9474;BME280;8865;47.636;7.692;2023-01-29T08:56:20;99349.31;;;1.35;100.00
9474;BME280;8865;47.636;7.692;2023-01-29T08:58:46;99346.66;;;1.09;100.00
9474;BME280;8865;47.636;7.692;2023-01-29T09:01:13;99344.53;;;0.93;100.00
9474;BME280;8865;47.636;7.692;2023-01-29T09:03:39;99345.53;;;1.17;100.00
9474;BME280;8865;47.636;7.692;2023-01-29T09:06:10;99350.31;;;1.30;100.00
9474;BME280;8865;47.636;7.692;2023-01-29T09:08:37;99350.06;;;1.11;100.00
9474;BME280;8865;47.636;7.692;2023-01-29T09:11:03;99349.72;;;1.21;100.00
9474;BME280;8865;47.636;7.692;2023-01-29T09:13:29;99355.25;;;1.09;100.00
9474;BME280;8865;47.636;7.692;2023-01-29T09:16:03;99357.34;;;0.96;100.00
9474;BME280;8865;47.636;7.692;2023-01-29T09:18:30;99361.06;;;1.16;100.00
9474;BME280;8865;47.636;7.692;2023-01-29T09:20:56;99361.56;;;1.27;100.00
9474;BME280;8865;47.636;7.692;2023-01-29T09:23:23;99366.94;;;1.21;100.00
9474;BME280;8865;47.636;7.692;2023-01-29T09:25:49;99359.03;;;1.25;100.00
9474;BME280;8865;47.636;7.692;2023-01-29T09:28:15;99369.41;;;1.24;100.00
9474;BME280;8865;47.636;7.692;2023-01-29T09:30:43;99362.94;;;1.39;100.00
9474;BME280;8865;47.636;7.692;2023-01-29T09:33:09;99367.09;;;1.45;100.00
9474;BME280;8865;47.636;7.692;2023-01-29T09:35:35;99367.00;;;1.48;100.00
9474;BME280;8865;47.636;7.692;2023-01-29T09:38:02;99364.13;;;1.57;100.00
9474;BME280;8865;47.636;7.692;2023-01-29T09:46:17;99369.63;;;1.73;100.00
9474;BME280;8865;47.636;7.692;2023-01-29T09:48:46;99376.25;;;1.82;100.00
9474;BME280;8865;47.636;7.692;2023-01-29T09:51:34;99372.72;;;1.84;100.00
9474;BME280;8865;47.636;7.692;2023-01-29T09:56:41;99370.94;;;1.86;100.00
9474;BME280;8865;47.636;7.692;2023-01-29T09:59:11;99366.19;;;1.99;100.00
9474;BME280;8865;47.636;7.692;2023-01-29T10:02:04;99369.41;;;2.06;100.00
9474;BME280;8865;47.636;7.692;2023-01-29T10:07:52;99355.91;;;2.24;100.00
9474;BME280;8865;47.636;7.692;2023-01-29T10:13:43;99350.47;;;2.32;100.00
9474;BME280;8865;47.636;7.692;2023-01-29T10:26:56;99341.47;;;3.13;100.00
9474;BME280;8865;47.636;7.692;2023-01-29T10:29:24;99341.78;;;3.72;100.00
9474;BME280;8865;47.636;7.692;2023-01-29T10:31:55;99338.56;;;6.16;100.00
9474;BME280;8865;47.636;7.692;2023-01-29T10:34:40;99327.88;;;7.21;99.90
9474;BME280;8865;47.636;7.692;2023-01-29T10:37:27;99334.84;;;7.04;97.13
9474;BME280;8865;47.636;7.692;2023-01-29T10:39:58;99337.88;;;6.63;100.00
9474;BME280;8865;47.636;7.692;2023-01-29T10:50:51;99309.97;;;5.44;100.00
9474;BME280;8865;47.636;7.692;2023-01-29T10:53:41;99314.84;;;5.33;100.00
9474;BME280;8865;47.636;7.692;2023-01-29T10:58:58;99301.91;;;6.54;100.00
9474;BME280;8865;47.636;7.692;2023-01-29T11:01:26;99291.00;;;6.63;99.14
9474;BME280;8865;47.636;7.692;2023-01-29T11:03:57;99295.66;;;7.22;99.24
9474;BME280;8865;47.636;7.692;2023-01-29T11:06:33;99290.38;;;7.07;95.16
9474;BME280;8865;47.636;7.692;2023-01-29T11:14:38;99269.91;;;8.51;77.72
9474;BME280;8865;47.636;7.692;2023-01-29T11:16:59;99269.25;;;11.48;68.89
9474;BME280;8865;47.636;7.692;2023-01-29T11:19:40;99254.94;;;14.81;55.97
9474;BME280;8865;47.636;7.692;2023-01-29T11:22:15;99253.75;;;16.40;45.06
9474;BME280;8865;47.636;7.692;2023-01-29T11:24:41;99259.31;;;15.70;43.20
9474;BME280;8865;47.636;7.692;2023-01-29T11:27:15;99253.69;;;17.51;39.53
9474;BME280;8865;47.636;7.692;2023-01-29T11:29:46;99249.91;;;18.93;36.87
9474;BME280;8865;47.636;7.692;2023-01-29T11:37:42;99252.13;;;12.02;44.20
9474;BME280;8865;47.636;7.692;2023-01-29T11:42:47;99259.81;;;8.74;58.00
9474;BME280;8865;47.636;7.692;2023-01-29T11:45:27;99254.47;;;7.12;69.78
9474;BME280;8865;47.636;7.692;2023-01-29T11:47:55;99257.06;;;6.33;81.08
9474;BME280;8865;47.636;7.692;2023-01-29T11:50:24;99264.16;;;6.29;85.81
9474;BME280;8865;47.636;7.692;2023-01-29T11:52:51;99268.19;;;5.84;91.35
9474;BME280;8865;47.636;7.692;2023-01-29T11:55:23;99269.41;;;5.59;98.13
9474;BME280;8865;47.636;7.692;2023-01-29T11:57:52;99275.53;;;5.76;96.34
9474;BME280;8865;47.636;7.692;2023-01-29T12:00:26;99273.41;;;5.84;97.44
9474;BME280;8865;47.636;7.692;2023-01-29T12:03:02;99271.41;;;5.89;95.73
9474;BME280;8865;47.636;7.692;2023-01-29T12:05:30;99270.34;;;5.22;97.04
9474;BME280;8865;47.636;7.692;2023-01-29T12:07:58;99260.16;;;5.88;93.27
9474;BME280;8865;47.636;7.692;2023-01-29T12:15:47;99250.88;;;6.67;86.26
9474;BME280;8865;47.636;7.692;2023-01-29T12:18:29;99251.16;;;7.41;82.53
9474;BME280;8865;47.636;7.692;2023-01-29T12:21:18;99233.63;;;8.61;75.95
9474;BME280;8865;47.636;7.692;2023-01-29T12:24:03;99233.47;;;8.91;70.42
9474;BME280;8865;47.636;7.692;2023-01-29T12:26:43;99230.91;;;9.04;65.60
9474;BME280;8865;47.636;7.692;2023-01-29T12:32:11;99244.53;;;9.09;64.94
9474;BME280;8865;47.636;7.692;2023-01-29T12:34:51;99247.25;;;8.93;65.35
9474;BME280;8865;47.636;7.692;2023-01-29T12:37:29;99246.88;;;8.58;64.66
9474;BME280;8865;47.636;7.692;2023-01-29T12:40:00;99241.53;;;8.16;64.85
9474;BME280;8865;47.636;7.692;2023-01-29T12:42:26;99239.03;;;8.00;66.09
9474;BME280;8865;47.636;7.692;2023-01-29T12:44:57;99236.91;;;7.62;70.31
9474;BME280;8865;47.636;7.692;2023-01-29T12:47:29;99240.31;;;7.48;71.90
9474;BME280;8865;47.636;7.692;2023-01-29T12:50:02;99236.25;;;7.12;76.57
9474;BME280;8865;47.636;7.692;2023-01-29T12:55:09;99240.91;;;6.26;77.35
9474;BME280;8865;47.636;7.692;2023-01-29T13:00:35;99234.88;;;5.75;90.33
9474;BME280;8865;47.636;7.692;2023-01-29T13:05:47;99224.53;;;5.55;88.86
9474;BME280;8865;47.636;7.692;2023-01-29T13:08:19;99219.78;;;5.46;88.28
9474;BME280;8865;47.636;7.692;2023-01-29T13:10:50;99219.78;;;5.29;92.18
9474;BME280;8865;47.636;7.692;2023-01-29T13:16:04;99214.69;;;5.27;91.89
9474;BME280;8865;47.636;7.692;2023-01-29T13:21:19;99211.13;;;5.11;92.06
9474;BME280;8865;47.636;7.692;2023-01-29T13:23:49;99207.91;;;5.42;95.08
9474;BME280;8865;47.636;7.692;2023-01-29T13:26:20;99205.78;;;5.14;93.05
9474;BME280;8865;47.636;7.692;2023-01-29T13:28:47;99205.97;;;5.28;97.47
9474;BME280;8865;47.636;7.692;2023-01-29T13:31:32;99204.50;;;5.40;93.57
9474;BME280;8865;47.636;7.692;2023-01-29T13:34:14;99198.09;;;5.65;90.04
9474;BME280;8865;47.636;7.692;2023-01-29T13:36:46;99195.66;;;5.95;90.48
9474;BME280;8865;47.636;7.692;2023-01-29T13:39:26;99183.50;;;6.13;86.81
9474;BME280;8865;47.636;7.692;2023-01-29T13:41:54;99186.97;;;5.79;86.03
9474;BME280;8865;47.636;7.692;2023-01-29T13:47:09;99180.91;;;6.13;84.42
9474;BME280;8865;47.636;7.692;2023-01-29T13:49:40;99180.78;;;5.81;84.64
9474;BME280;8865;47.636;7.692;2023-01-29T14:10:36;99152.69;;;5.37;93.31
9474;BME280;8865;47.636;7.692;2023-01-29T14:15:32;99150.09;;;5.37;93.56
9474;BME280;8865;47.636;7.692;2023-01-29T14:18:02;99156.09;;;5.39;95.68
9474;BME280;8865;47.636;7.692;2023-01-29T14:21:16;99145.59;;;5.23;96.41
9474;BME280;8865;47.636;7.692;2023-01-29T14:23:45;99152.69;;;5.37;95.29
9474;BME280;8865;47.636;7.692;2023-01-29T14:26:23;99153.16;;;5.28;99.01
9474;BME280;8865;47.636;7.692;2023-01-29T14:31:43;99150.16;;;4.83;100.00
9474;BME280;8865;47.636;7.692;2023-01-29T14:34:31;99144.09;;;4.65;100.00
9474;BME280;8865;47.636;7.692;2023-01-29T14:42:28;99141.84;;;4.57;99.71
9474;BME280;8865;47.636;7.692;2023-01-29T14:56:13;99161.66;;;4.22;100.00
9474;BME280;8865;47.636;7.692;2023-01-29T14:58:47;99167.03;;;4.17;100.00
9474;BME280;8865;47.636;7.692;2023-01-29T15:01:20;99164.44;;;4.17;100.00
9474;BME280;8865;47.636;7.692;2023-01-29T15:04:02;99154.66;;;4.24;100.00
9474;BME280;8865;47.636;7.692;2023-01-29T15:06:36;99157.03;;;4.28;100.00
9474;BME280;8865;47.636;7.692;2023-01-29T15:09:16;99157.56;;;4.16;100.00
9474;BME280;8865;47.636;7.692;2023-01-29T15:12:03;99159.50;;;4.32;100.00
9474;BME280;8865;47.636;7.692;2023-01-29T15:14:34;99158.44;;;4.36;100.00
9474;BME280;8865;47.636;7.692;2023-01-29T15:19:41;99169.06;;;4.29;100.00
9474;BME280;8865;47.636;7.692;2023-01-29T15:22:20;99169.78;;;4.14;100.00
9474;BME280;8865;47.636;7.692;2023-01-29T15:25:01;99178.78;;;4.05;100.00
9474;BME280;8865;47.636;7.692;2023-01-29T15:27:28;99176.59;;;4.17;100.00
9474;BME280;8865;47.636;7.692;2023-01-29T15:29:59;99172.91;;;4.21;100.00
9474;BME280;8865;47.636;7.692;2023-01-29T15:32:35;99176.94;;;4.09;100.00
9474;BME280;8865;47.636;7.692;2023-01-29T15:35:14;99174.22;;;3.91;100.00
9474;BME280;8865;47.636;7.692;2023-01-29T15:37:57;99173.25;;;3.94;100.00
9474;BME280;8865;47.636;7.692;2023-01-29T15:40:23;99169.03;;;3.91;100.00
9474;BME280;8865;47.636;7.692;2023-01-29T15:42:50;99172.56;;;3.90;100.00
9474;BME280;8865;47.636;7.692;2023-01-29T15:45:32;99175.34;;;3.86;100.00
9474;BME280;8865;47.636;7.692;2023-01-29T15:48:13;99180.94;;;3.77;100.00
9474;BME280;8865;47.636;7.692;2023-01-29T15:50:42;99176.47;;;3.80;100.00
9474;BME280;8865;47.636;7.692;2023-01-29T15:53:14;99180.53;;;3.86;100.00
9474;BME280;8865;47.636;7.692;2023-01-29T15:55:43;99180.28;;;3.92;100.00
9474;BME280;8865;47.636;7.692;2023-01-29T15:58:16;99183.13;;;3.86;100.00
9474;BME280;8865;47.636;7.692;2023-01-29T16:00:54;99183.34;;;3.81;100.00
9474;BME280;8865;47.636;7.692;2023-01-29T16:03:22;99191.56;;;3.70;100.00
9474;BME280;8865;47.636;7.692;2023-01-29T16:05:51;99190.44;;;3.76;100.00
9474;BME280;8865;47.636;7.692;2023-01-29T16:08:17;99186.13;;;3.77;100.00
9474;BME280;8865;47.636;7.692;2023-01-29T16:10:48;99193.84;;;3.78;100.00
9474;BME280;8865;47.636;7.692;2023-01-29T16:13:21;99191.25;;;3.78;100.00
9474;BME280;8865;47.636;7.692;2023-01-29T16:15:58;99192.06;;;3.79;100.00
9474;BME280;8865;47.636;7.692;2023-01-29T16:18:30;99195.50;;;3.79;100.00
9474;BME280;8865;47.636;7.692;2023-01-29T16:21:06;99189.53;;;3.77;100.00
9474;BME280;8865;47.636;7.692;2023-01-29T16:23:39;99189.19;;;3.66;100.00
9474;BME280;8865;47.636;7.692;2023-01-29T16:26:07;99193.56;;;3.64;100.00
9474;BME280;8865;47.636;7.692;2023-01-29T16:28:41;99198.09;;;3.58;100.00
9474;BME280;8865;47.636;7.692;2023-01-29T16:31:09;99196.59;;;3.53;100.00